sensor_id;sensor_type;location;lat;lon;timestamp;P1;durP1;ratioP1;P2;durP2;ratioP2
8285;SDS011;4181;43.416;24.598;2022-10-16T00:00:43;9.80;;;7.43;;
8285;SDS011;4181;43.416;24.598;2022-10-16T00:03:09;8.70;;;7.80;;
8285;SDS011;4181;43.416;24.598;2022-10-16T00:05:42;9.50;;;6.73;;
8285;SDS011;4181;43.416;24.598;2022-10-16T00:08:09;9.43;;;6.50;;
8285;SDS011;4181;43.416;24.598;2022-10-16T00:10:36;9.63;;;7.53;;
8285;SDS011;4181;43.416;24.598;2022-10-16T00:13:02;9.20;;;7.03;;
8285;SDS011;4181;43.416;24.598;2022-10-16T00:15:28;8.97;;;7.03;;
8285;SDS011;4181;43.416;24.598;2022-10-16T00:17:58;10.10;;;6.73;;
8285;SDS011;4181;43.416;24.598;2022-10-16T00:20:23;8.57;;;6.73;;
8285;SDS011;4181;43.416;24.598;2022-10-16T00:22:49;10.43;;;6.70;;
8285;SDS011;4181;43.416;24.598;2022-10-16T00:25:14;9.37;;;6.50;;
8285;SDS011;4181;43.416;24.598;2022-10-16T00:27:39;11.13;;;7.07;;
8285;SDS011;4181;43.416;24.598;2022-10-16T00:30:05;20.53;;;9.40;;
8285;SDS011;4181;43.416;24.598;2022-10-16T00:32:33;10.33;;;7.57;;
8285;SDS011;4181;43.416;24.598;2022-10-16T00:34:58;7.63;;;6.73;;
8285;SDS011;4181;43.416;24.598;2022-10-16T00:37:24;9.60;;;6.80;;
8285;SDS011;4181;43.416;24.598;2022-10-16T00:39:49;11.53;;;7.47;;
8285;SDS011;4181;43.416;24.598;2022-10-16T00:42:15;7.50;;;6.70;;
8285;SDS011;4181;43.416;24.598;2022-10-16T00:47:19;7.73;;;6.90;;
8285;SDS011;4181;43.416;24.598;2022-10-16T00:49:47;7.73;;;6.93;;
8285;SDS011;4181;43.416;24.598;2022-10-16T00:52:16;9.73;;;6.57;;
8285;SDS011;4181;43.416;24.598;2022-10-16T00:54:42;27.47;;;9.33;;
8285;SDS011;4181;43.416;24.598;2022-10-16T00:57:09;23.43;;;8.73;;
8285;SDS011;4181;43.416;24.598;2022-10-16T01:02:01;10.47;;;7.00;;
8285;SDS011;4181;43.416;24.598;2022-10-16T01:04:29;8.13;;;7.20;;
8285;SDS011;4181;43.416;24.598;2022-10-16T01:15:11;8.33;;;7.27;;
8285;SDS011;4181;43.416;24.598;2022-10-16T01:17:51;23.17;;;8.50;;
8285;SDS011;4181;43.416;24.598;2022-10-16T01:28:57;12.60;;;7.30;;
8285;SDS011;4181;43.416;24.598;2022-10-16T01:31:47;7.67;;;6.93;;
8285;SDS011;4181;43.416;24.598;2022-10-16T01:34:22;14.80;;;7.77;;
8285;SDS011;4181;43.416;24.598;2022-10-16T01:36:58;9.60;;;8.00;;
8285;SDS011;4181;43.416;24.598;2022-10-16T01:39:30;9.37;;;7.40;;
8285;SDS011;4181;43.416;24.598;2022-10-16T01:42:03;16.23;;;7.73;;
8285;SDS011;4181;43.416;24.598;2022-10-16T01:44:33;9.87;;;7.37;;
8285;SDS011;4181;43.416;24.598;2022-10-16T01:47:01;10.20;;;8.23;;
8285;SDS011;4181;43.416;24.598;2022-10-16T01:49:29;10.80;;;8.03;;
8285;SDS011;4181;43.416;24.598;2022-10-16T01:51:59;9.40;;;7.57;;
8285;SDS011;4181;43.416;24.598;2022-10-16T01:54:27;8.83;;;7.60;;
8285;SDS011;4181;43.416;24.598;2022-10-16T01:56:55;10.57;;;7.90;;
8285;SDS011;4181;43.416;24.598;2022-10-16T01:59:23;10.27;;;7.83;;
8285;SDS011;4181;43.416;24.598;2022-10-16T02:01:55;9.13;;;7.77;;
8285;SDS011;4181;43.416;24.598;2022-10-16T02:04:26;10.77;;;7.43;;
8285;SDS011;4181;43.416;24.598;2022-10-16T02:06:55;9.23;;;7.77;;
8285;SDS011;4181;43.416;24.598;2022-10-16T02:09:21;9.97;;;7.57;;
8285;SDS011;4181;43.416;24.598;2022-10-16T02:11:47;11.53;;;7.80;;
8285;SDS011;4181;43.416;24.598;2022-10-16T02:14:14;8.60;;;7.70;;
8285;SDS011;4181;43.416;24.598;2022-10-16T02:16:41;10.37;;;7.50;;
8285;SDS011;4181;43.416;24.598;2022-10-16T02:19:08;8.67;;;7.67;;
8285;SDS011;4181;43.416;24.598;2022-10-16T02:21:49;9.30;;;7.60;;
8285;SDS011;4181;43.416;24.598;2022-10-16T02:24:34;9.00;;;8.07;;
8285;SDS011;4181;43.416;24.598;2022-10-16T02:29:34;8.70;;;7.80;;
8285;SDS011;4181;43.416;24.598;2022-10-16T02:32:14;13.90;;;8.10;;
8285;SDS011;4181;43.416;24.598;2022-10-16T02:34:44;10.87;;;8.23;;
8285;SDS011;4181;43.416;24.598;2022-10-16T02:37:12;10.43;;;7.57;;
8285;SDS011;4181;43.416;24.598;2022-10-16T02:39:38;10.63;;;8.20;;
8285;SDS011;4181;43.416;24.598;2022-10-16T02:42:09;18.47;;;9.33;;
8285;SDS011;4181;43.416;24.598;2022-10-16T02:44:38;54.67;;;15.53;;
8285;SDS011;4181;43.416;24.598;2022-10-16T02:47:03;33.87;;;15.20;;
8285;SDS011;4181;43.416;24.598;2022-10-16T02:49:29;18.53;;;8.60;;
8285;SDS011;4181;43.416;24.598;2022-10-16T02:51:54;20.33;;;9.67;;
8285;SDS011;4181;43.416;24.598;2022-10-16T02:54:20;13.00;;;8.57;;
8285;SDS011;4181;43.416;24.598;2022-10-16T02:56:45;9.90;;;7.60;;
8285;SDS011;4181;43.416;24.598;2022-10-16T02:59:11;20.17;;;9.43;;
8285;SDS011;4181;43.416;24.598;2022-10-16T03:01:36;10.53;;;8.13;;
8285;SDS011;4181;43.416;24.598;2022-10-16T03:04:02;9.23;;;7.97;;
8285;SDS011;4181;43.416;24.598;2022-10-16T03:06:27;10.87;;;8.17;;
8285;SDS011;4181;43.416;24.598;2022-10-16T03:08:53;9.67;;;8.30;;
8285;SDS011;4181;43.416;24.598;2022-10-16T03:11:18;10.90;;;8.90;;
8285;SDS011;4181;43.416;24.598;2022-10-16T03:13:44;10.40;;;9.30;;
8285;SDS011;4181;43.416;24.598;2022-10-16T03:16:09;11.03;;;8.40;;
8285;SDS011;4181;43.416;24.598;2022-10-16T03:18:35;13.17;;;9.03;;
8285;SDS011;4181;43.416;24.598;2022-10-16T03:21:00;13.47;;;9.03;;
8285;SDS011;4181;43.416;24.598;2022-10-16T03:23:25;10.43;;;8.97;;
8285;SDS011;4181;43.416;24.598;2022-10-16T03:25:51;15.50;;;8.90;;
8285;SDS011;4181;43.416;24.598;2022-10-16T03:28:17;10.77;;;8.63;;
8285;SDS011;4181;43.416;24.598;2022-10-16T03:30:43;11.70;;;8.57;;
8285;SDS011;4181;43.416;24.598;2022-10-16T03:33:08;12.17;;;9.77;;
8285;SDS011;4181;43.416;24.598;2022-10-16T03:35:34;12.10;;;8.97;;
8285;SDS011;4181;43.416;24.598;2022-10-16T03:38:00;17.27;;;11.10;;
8285;SDS011;4181;43.416;24.598;2022-10-16T03:40:25;13.23;;;10.60;;
8285;SDS011;4181;43.416;24.598;2022-10-16T03:42:51;15.23;;;10.97;;
8285;SDS011;4181;43.416;24.598;2022-10-16T03:45:16;13.80;;;11.17;;
8285;SDS011;4181;43.416;24.598;2022-10-16T03:47:42;18.07;;;10.60;;
8285;SDS011;4181;43.416;24.598;2022-10-16T03:50:07;14.10;;;10.00;;
8285;SDS011;4181;43.416;24.598;2022-10-16T03:52:33;16.50;;;10.83;;
8285;SDS011;4181;43.416;24.598;2022-10-16T03:54:59;15.33;;;10.60;;
8285;SDS011;4181;43.416;24.598;2022-10-16T03:57:24;12.80;;;10.37;;
8285;SDS011;4181;43.416;24.598;2022-10-16T03:59:50;24.27;;;12.27;;
8285;SDS011;4181;43.416;24.598;2022-10-16T04:02:15;17.87;;;11.07;;
8285;SDS011;4181;43.416;24.598;2022-10-16T04:04:41;18.90;;;11.40;;
8285;SDS011;4181;43.416;24.598;2022-10-16T04:07:06;15.23;;;12.80;;
8285;SDS011;4181;43.416;24.598;2022-10-16T04:09:32;18.87;;;13.10;;
8285;SDS011;4181;43.416;24.598;2022-10-16T04:11:57;16.80;;;12.37;;
8285;SDS011;4181;43.416;24.598;2022-10-16T04:14:23;32.00;;;22.60;;
8285;SDS011;4181;43.416;24.598;2022-10-16T04:16:48;41.50;;;23.97;;
8285;SDS011;4181;43.416;24.598;2022-10-16T04:19:14;68.10;;;39.80;;
8285;SDS011;4181;43.416;24.598;2022-10-16T04:21:39;87.00;;;54.40;;
8285;SDS011;4181;43.416;24.598;2022-10-16T04:24:05;65.63;;;43.07;;
8285;SDS011;4181;43.416;24.598;2022-10-16T04:26:30;80.50;;;54.53;;
8285;SDS011;4181;43.416;24.598;2022-10-16T04:28:55;119.60;;;78.57;;
8285;SDS011;4181;43.416;24.598;2022-10-16T04:31:21;58.70;;;43.70;;
8285;SDS011;4181;43.416;24.598;2022-10-16T04:33:46;43.03;;;35.07;;
8285;SDS011;4181;43.416;24.598;2022-10-16T04:36:12;40.13;;;32.93;;
8285;SDS011;4181;43.416;24.598;2022-10-16T04:38:38;38.40;;;32.90;;
8285;SDS011;4181;43.416;24.598;2022-10-16T04:41:04;43.83;;;36.57;;
8285;SDS011;4181;43.416;24.598;2022-10-16T04:43:31;36.10;;;29.90;;
8285;SDS011;4181;43.416;24.598;2022-10-16T04:45:57;36.87;;;30.07;;
8285;SDS011;4181;43.416;24.598;2022-10-16T04:48:22;35.57;;;28.80;;
8285;SDS011;4181;43.416;24.598;2022-10-16T04:50:48;42.67;;;34.73;;
8285;SDS011;4181;43.416;24.598;2022-10-16T04:53:13;42.40;;;34.83;;
8285;SDS011;4181;43.416;24.598;2022-10-16T04:55:39;40.80;;;35.50;;
8285;SDS011;4181;43.416;24.598;2022-10-16T04:58:06;47.37;;;39.73;;
8285;SDS011;4181;43.416;24.598;2022-10-16T05:00:32;46.00;;;40.97;;
8285;SDS011;4181;43.416;24.598;2022-10-16T05:02:57;49.70;;;42.07;;
8285;SDS011;4181;43.416;24.598;2022-10-16T05:05:24;49.60;;;42.33;;
8285;SDS011;4181;43.416;24.598;2022-10-16T05:07:50;50.40;;;40.47;;
8285;SDS011;4181;43.416;24.598;2022-10-16T05:10:16;35.17;;;31.43;;
8285;SDS011;4181;43.416;24.598;2022-10-16T05:12:41;32.30;;;28.30;;
8285;SDS011;4181;43.416;24.598;2022-10-16T05:15:07;33.77;;;24.20;;
8285;SDS011;4181;43.416;24.598;2022-10-16T05:17:33;164.20;;;128.57;;
8285;SDS011;4181;43.416;24.598;2022-10-16T05:19:58;161.63;;;106.67;;
8285;SDS011;4181;43.416;24.598;2022-10-16T05:22:24;196.87;;;146.37;;
8285;SDS011;4181;43.416;24.598;2022-10-16T05:24:49;360.13;;;284.13;;
8285;SDS011;4181;43.416;24.598;2022-10-16T05:27:15;141.23;;;104.13;;
8285;SDS011;4181;43.416;24.598;2022-10-16T05:29:47;35.33;;;29.13;;
8285;SDS011;4181;43.416;24.598;2022-10-16T05:32:14;34.63;;;26.37;;
8285;SDS011;4181;43.416;24.598;2022-10-16T05:34:40;38.60;;;27.43;;
8285;SDS011;4181;43.416;24.598;2022-10-16T05:37:06;34.37;;;30.60;;
8285;SDS011;4181;43.416;24.598;2022-10-16T05:39:33;41.33;;;34.90;;
8285;SDS011;4181;43.416;24.598;2022-10-16T05:41:58;38.70;;;33.53;;
8285;SDS011;4181;43.416;24.598;2022-10-16T05:44:24;41.73;;;31.67;;
8285;SDS011;4181;43.416;24.598;2022-10-16T05:46:49;41.87;;;31.70;;
8285;SDS011;4181;43.416;24.598;2022-10-16T05:49:15;40.23;;;32.10;;
8285;SDS011;4181;43.416;24.598;2022-10-16T05:51:42;32.57;;;29.07;;
8285;SDS011;4181;43.416;24.598;2022-10-16T05:54:07;34.20;;;26.87;;
8285;SDS011;4181;43.416;24.598;2022-10-16T05:56:33;33.87;;;28.47;;
8285;SDS011;4181;43.416;24.598;2022-10-16T05:58:59;39.77;;;29.57;;
8285;SDS011;4181;43.416;24.598;2022-10-16T06:01:24;32.30;;;26.80;;
8285;SDS011;4181;43.416;24.598;2022-10-16T06:03:50;27.40;;;24.27;;
8285;SDS011;4181;43.416;24.598;2022-10-16T06:06:18;27.90;;;24.13;;
8285;SDS011;4181;43.416;24.598;2022-10-16T06:08:45;25.37;;;21.50;;
8285;SDS011;4181;43.416;24.598;2022-10-16T06:11:13;24.17;;;20.67;;
8285;SDS011;4181;43.416;24.598;2022-10-16T06:13:43;26.33;;;20.77;;
8285;SDS011;4181;43.416;24.598;2022-10-16T06:16:11;21.90;;;18.17;;
8285;SDS011;4181;43.416;24.598;2022-10-16T06:18:37;19.73;;;16.87;;
8285;SDS011;4181;43.416;24.598;2022-10-16T06:21:10;26.23;;;18.27;;
8285;SDS011;4181;43.416;24.598;2022-10-16T06:23:37;22.23;;;17.57;;
8285;SDS011;4181;43.416;24.598;2022-10-16T06:26:07;23.80;;;16.63;;
8285;SDS011;4181;43.416;24.598;2022-10-16T06:28:37;21.00;;;16.50;;
8285;SDS011;4181;43.416;24.598;2022-10-16T06:31:04;18.83;;;16.20;;
8285;SDS011;4181;43.416;24.598;2022-10-16T06:33:32;25.43;;;17.07;;
8285;SDS011;4181;43.416;24.598;2022-10-16T06:36:01;23.80;;;15.17;;
8285;SDS011;4181;43.416;24.598;2022-10-16T06:38:29;24.13;;;16.07;;
8285;SDS011;4181;43.416;24.598;2022-10-16T06:40:55;25.30;;;17.30;;
8285;SDS011;4181;43.416;24.598;2022-10-16T06:43:21;23.77;;;17.70;;
8285;SDS011;4181;43.416;24.598;2022-10-16T06:45:53;32.70;;;18.57;;
8285;SDS011;4181;43.416;24.598;2022-10-16T06:48:19;20.07;;;17.97;;
8285;SDS011;4181;43.416;24.598;2022-10-16T06:51:04;24.50;;;17.10;;
8285;SDS011;4181;43.416;24.598;2022-10-16T06:53:34;35.37;;;20.87;;
8285;SDS011;4181;43.416;24.598;2022-10-16T06:56:11;21.40;;;18.83;;
8285;SDS011;4181;43.416;24.598;2022-10-16T06:58:54;23.00;;;18.30;;
8285;SDS011;4181;43.416;24.598;2022-10-16T07:01:20;28.30;;;17.63;;
8285;SDS011;4181;43.416;24.598;2022-10-16T07:03:48;21.03;;;17.40;;
8285;SDS011;4181;43.416;24.598;2022-10-16T07:06:15;22.30;;;16.60;;
8285;SDS011;4181;43.416;24.598;2022-10-16T07:08:44;18.80;;;16.30;;
8285;SDS011;4181;43.416;24.598;2022-10-16T07:11:11;22.23;;;16.10;;
8285;SDS011;4181;43.416;24.598;2022-10-16T07:13:39;20.13;;;15.27;;
8285;SDS011;4181;43.416;24.598;2022-10-16T07:16:10;20.77;;;15.40;;
8285;SDS011;4181;43.416;24.598;2022-10-16T07:18:38;17.47;;;13.63;;
8285;SDS011;4181;43.416;24.598;2022-10-16T07:21:06;16.53;;;14.17;;
8285;SDS011;4181;43.416;24.598;2022-10-16T07:23:33;28.80;;;14.13;;
8285;SDS011;4181;43.416;24.598;2022-10-16T07:25:58;16.80;;;10.27;;
8285;SDS011;4181;43.416;24.598;2022-10-16T07:28:24;13.70;;;12.27;;
8285;SDS011;4181;43.416;24.598;2022-10-16T07:30:50;17.13;;;11.77;;
8285;SDS011;4181;43.416;24.598;2022-10-16T07:33:15;14.47;;;10.97;;
8285;SDS011;4181;43.416;24.598;2022-10-16T07:36:14;13.97;;;10.90;;
8285;SDS011;4181;43.416;24.598;2022-10-16T07:38:32;16.40;;;11.93;;
8285;SDS011;4181;43.416;24.598;2022-10-16T07:41:05;15.13;;;12.83;;
8285;SDS011;4181;43.416;24.598;2022-10-16T07:43:32;16.13;;;13.53;;
8285;SDS011;4181;43.416;24.598;2022-10-16T07:45:58;16.53;;;12.90;;
8285;SDS011;4181;43.416;24.598;2022-10-16T07:48:29;21.07;;;14.03;;
8285;SDS011;4181;43.416;24.598;2022-10-16T07:50:57;22.70;;;14.63;;
8285;SDS011;4181;43.416;24.598;2022-10-16T07:53:26;16.23;;;12.60;;
8285;SDS011;4181;43.416;24.598;2022-10-16T07:55:56;18.00;;;12.23;;
8285;SDS011;4181;43.416;24.598;2022-10-16T07:58:25;14.70;;;11.60;;
8285;SDS011;4181;43.416;24.598;2022-10-16T08:00:51;22.10;;;13.30;;
8285;SDS011;4181;43.416;24.598;2022-10-16T08:03:16;19.40;;;12.27;;
8285;SDS011;4181;43.416;24.598;2022-10-16T08:05:41;22.63;;;12.33;;
8285;SDS011;4181;43.416;24.598;2022-10-16T08:08:10;22.50;;;12.73;;
8285;SDS011;4181;43.416;24.598;2022-10-16T08:10:38;19.03;;;12.33;;
8285;SDS011;4181;43.416;24.598;2022-10-16T08:13:03;20.30;;;12.10;;
8285;SDS011;4181;43.416;24.598;2022-10-16T08:15:29;22.93;;;11.43;;
8285;SDS011;4181;43.416;24.598;2022-10-16T08:17:58;14.30;;;10.83;;
8285;SDS011;4181;43.416;24.598;2022-10-16T08:20:27;16.60;;;10.13;;
8285;SDS011;4181;43.416;24.598;2022-10-16T08:22:53;12.63;;;9.90;;
8285;SDS011;4181;43.416;24.598;2022-10-16T08:25:20;15.83;;;9.97;;
8285;SDS011;4181;43.416;24.598;2022-10-16T08:27:47;13.97;;;8.53;;
8285;SDS011;4181;43.416;24.598;2022-10-16T08:30:14;15.00;;;8.50;;
8285;SDS011;4181;43.416;24.598;2022-10-16T08:32:39;11.80;;;8.67;;
8285;SDS011;4181;43.416;24.598;2022-10-16T08:35:08;15.03;;;9.30;;
8285;SDS011;4181;43.416;24.598;2022-10-16T08:37:36;13.40;;;8.60;;
8285;SDS011;4181;43.416;24.598;2022-10-16T08:40:04;13.23;;;9.20;;
8285;SDS011;4181;43.416;24.598;2022-10-16T08:50:21;13.47;;;7.30;;
8285;SDS011;4181;43.416;24.598;2022-10-16T08:52:53;8.80;;;7.20;;
8285;SDS011;4181;43.416;24.598;2022-10-16T08:58:09;8.57;;;6.57;;
8285;SDS011;4181;43.416;24.598;2022-10-16T09:00:40;10.37;;;6.60;;
8285;SDS011;4181;43.416;24.598;2022-10-16T09:03:12;12.97;;;6.80;;
8285;SDS011;4181;43.416;24.598;2022-10-16T09:11:57;13.90;;;7.60;;
8285;SDS011;4181;43.416;24.598;2022-10-16T09:17:51;8.60;;;6.63;;
8285;SDS011;4181;43.416;24.598;2022-10-16T09:23:00;8.07;;;6.43;;
8285;SDS011;4181;43.416;24.598;2022-10-16T09:25:37;12.80;;;7.13;;
8285;SDS011;4181;43.416;24.598;2022-10-16T09:28:07;11.03;;;6.57;;
8285;SDS011;4181;43.416;24.598;2022-10-16T09:30:33;9.73;;;6.23;;
8285;SDS011;4181;43.416;24.598;2022-10-16T09:32:59;10.80;;;6.83;;
8285;SDS011;4181;43.416;24.598;2022-10-16T09:35:32;12.37;;;7.20;;
8285;SDS011;4181;43.416;24.598;2022-10-16T09:38:02;9.43;;;6.37;;
8285;SDS011;4181;43.416;24.598;2022-10-16T09:40:32;8.67;;;6.63;;
8285;SDS011;4181;43.416;24.598;2022-10-16T09:46:00;8.13;;;6.20;;
8285;SDS011;4181;43.416;24.598;2022-10-16T09:48:31;11.80;;;6.77;;
8285;SDS011;4181;43.416;24.598;2022-10-16T09:51:02;11.50;;;5.77;;
8285;SDS011;4181;43.416;24.598;2022-10-16T09:53:40;9.67;;;6.50;;
8285;SDS011;4181;43.416;24.598;2022-10-16T09:56:11;11.97;;;6.67;;
8285;SDS011;4181;43.416;24.598;2022-10-16T09:58:50;14.53;;;6.73;;
8285;SDS011;4181;43.416;24.598;2022-10-16T10:01:17;10.40;;;6.43;;
8285;SDS011;4181;43.416;24.598;2022-10-16T10:03:44;7.77;;;6.90;;
8285;SDS011;4181;43.416;24.598;2022-10-16T10:06:24;10.80;;;6.90;;
8285;SDS011;4181;43.416;24.598;2022-10-16T10:08:52;9.50;;;6.93;;
8285;SDS011;4181;43.416;24.598;2022-10-16T10:17:17;10.00;;;7.17;;
8285;SDS011;4181;43.416;24.598;2022-10-16T10:20:15;8.37;;;6.90;;
8285;SDS011;4181;43.416;24.598;2022-10-16T10:22:41;8.00;;;6.97;;
8285;SDS011;4181;43.416;24.598;2022-10-16T10:30:25;8.10;;;6.47;;
8285;SDS011;4181;43.416;24.598;2022-10-16T10:35:56;12.23;;;6.60;;
8285;SDS011;4181;43.416;24.598;2022-10-16T10:49:48;8.80;;;6.33;;
8285;SDS011;4181;43.416;24.598;2022-10-16T10:55:23;9.83;;;6.47;;
8285;SDS011;4181;43.416;24.598;2022-10-16T11:03:31;15.03;;;7.83;;
8285;SDS011;4181;43.416;24.598;2022-10-16T11:08:53;8.23;;;5.93;;
8285;SDS011;4181;43.416;24.598;2022-10-16T11:11:25;11.67;;;6.27;;
8285;SDS011;4181;43.416;24.598;2022-10-16T11:14:17;10.07;;;5.40;;
8285;SDS011;4181;43.416;24.598;2022-10-16T11:17:28;8.27;;;5.87;;
8285;SDS011;4181;43.416;24.598;2022-10-16T11:20:02;10.83;;;5.87;;
8285;SDS011;4181;43.416;24.598;2022-10-16T11:25:28;10.07;;;6.57;;
8285;SDS011;4181;43.416;24.598;2022-10-16T11:30:29;8.37;;;5.37;;
8285;SDS011;4181;43.416;24.598;2022-10-16T11:33:10;9.73;;;5.07;;
8285;SDS011;4181;43.416;24.598;2022-10-16T11:35:49;8.77;;;5.20;;
8285;SDS011;4181;43.416;24.598;2022-10-16T11:39:12;7.87;;;5.43;;
8285;SDS011;4181;43.416;24.598;2022-10-16T11:41:29;13.13;;;5.13;;
8285;SDS011;4181;43.416;24.598;2022-10-16T11:44:09;6.20;;;5.17;;
8285;SDS011;4181;43.416;24.598;2022-10-16T11:49:28;8.20;;;4.97;;
8285;SDS011;4181;43.416;24.598;2022-10-16T11:57:11;6.90;;;5.13;;
8285;SDS011;4181;43.416;24.598;2022-10-16T12:00:04;8.47;;;5.30;;
8285;SDS011;4181;43.416;24.598;2022-10-16T12:08:20;10.13;;;6.90;;
8285;SDS011;4181;43.416;24.598;2022-10-16T12:10:48;8.77;;;5.80;;
8285;SDS011;4181;43.416;24.598;2022-10-16T12:13:29;6.90;;;5.40;;
8285;SDS011;4181;43.416;24.598;2022-10-16T12:16:04;12.13;;;6.10;;
8285;SDS011;4181;43.416;24.598;2022-10-16T12:18:45;7.63;;;6.17;;
8285;SDS011;4181;43.416;24.598;2022-10-16T12:21:11;8.70;;;6.20;;
8285;SDS011;4181;43.416;24.598;2022-10-16T12:23:47;10.47;;;6.43;;
8285;SDS011;4181;43.416;24.598;2022-10-16T12:26:24;9.33;;;6.13;;
8285;SDS011;4181;43.416;24.598;2022-10-16T12:28:54;10.40;;;6.67;;
8285;SDS011;4181;43.416;24.598;2022-10-16T12:31:21;7.20;;;6.03;;
8285;SDS011;4181;43.416;24.598;2022-10-16T12:33:57;7.87;;;6.47;;
8285;SDS011;4181;43.416;24.598;2022-10-16T12:36:28;12.60;;;6.87;;
8285;SDS011;4181;43.416;24.598;2022-10-16T12:38:56;12.43;;;7.23;;
8285;SDS011;4181;43.416;24.598;2022-10-16T12:41:31;12.10;;;8.10;;
8285;SDS011;4181;43.416;24.598;2022-10-16T12:43:59;9.33;;;7.93;;
8285;SDS011;4181;43.416;24.598;2022-10-16T12:49:37;12.00;;;7.50;;
8285;SDS011;4181;43.416;24.598;2022-10-16T12:51:52;9.13;;;7.23;;
8285;SDS011;4181;43.416;24.598;2022-10-16T12:54:27;10.90;;;7.53;;
8285;SDS011;4181;43.416;24.598;2022-10-16T13:16:17;12.53;;;6.70;;
8285;SDS011;4181;43.416;24.598;2022-10-16T13:21:31;9.53;;;7.13;;
8285;SDS011;4181;43.416;24.598;2022-10-16T13:24:01;9.83;;;7.07;;
8285;SDS011;4181;43.416;24.598;2022-10-16T13:26:43;12.93;;;8.13;;
8285;SDS011;4181;43.416;24.598;2022-10-16T13:29:14;14.70;;;7.80;;
8285;SDS011;4181;43.416;24.598;2022-10-16T13:31:41;11.07;;;9.10;;
8285;SDS011;4181;43.416;24.598;2022-10-16T13:34:11;13.87;;;7.53;;
8285;SDS011;4181;43.416;24.598;2022-10-16T13:36:45;9.67;;;7.27;;
8285;SDS011;4181;43.416;24.598;2022-10-16T13:39:33;9.40;;;7.23;;
8285;SDS011;4181;43.416;24.598;2022-10-16T13:42:11;11.53;;;7.10;;
8285;SDS011;4181;43.416;24.598;2022-10-16T13:44:41;11.27;;;7.57;;
8285;SDS011;4181;43.416;24.598;2022-10-16T13:49:59;13.97;;;7.73;;
8285;SDS011;4181;43.416;24.598;2022-10-16T13:52:26;8.63;;;7.77;;
8285;SDS011;4181;43.416;24.598;2022-10-16T13:54:52;8.37;;;6.80;;
8285;SDS011;4181;43.416;24.598;2022-10-16T13:57:18;9.40;;;7.43;;
8285;SDS011;4181;43.416;24.598;2022-10-16T13:59:47;10.47;;;7.60;;
8285;SDS011;4181;43.416;24.598;2022-10-16T14:02:35;8.47;;;6.93;;
8285;SDS011;4181;43.416;24.598;2022-10-16T14:05:03;8.47;;;6.40;;
8285;SDS011;4181;43.416;24.598;2022-10-16T14:07:33;7.40;;;6.53;;
8285;SDS011;4181;43.416;24.598;2022-10-16T14:10:07;8.57;;;6.67;;
8285;SDS011;4181;43.416;24.598;2022-10-16T14:12:55;10.27;;;6.73;;
8285;SDS011;4181;43.416;24.598;2022-10-16T14:15:30;10.87;;;7.40;;
8285;SDS011;4181;43.416;24.598;2022-10-16T14:17:57;9.40;;;6.57;;
8285;SDS011;4181;43.416;24.598;2022-10-16T14:20:28;9.63;;;6.80;;
8285;SDS011;4181;43.416;24.598;2022-10-16T14:25:30;9.93;;;6.97;;
8285;SDS011;4181;43.416;24.598;2022-10-16T14:30:24;11.07;;;7.00;;
8285;SDS011;4181;43.416;24.598;2022-10-16T14:33:04;11.57;;;7.60;;
8285;SDS011;4181;43.416;24.598;2022-10-16T14:35:37;11.07;;;7.83;;
8285;SDS011;4181;43.416;24.598;2022-10-16T14:38:04;17.43;;;10.63;;
8285;SDS011;4181;43.416;24.598;2022-10-16T14:40:32;20.70;;;13.80;;
8285;SDS011;4181;43.416;24.598;2022-10-16T14:43:01;18.57;;;10.50;;
8285;SDS011;4181;43.416;24.598;2022-10-16T14:45:30;11.53;;;8.73;;
8285;SDS011;4181;43.416;24.598;2022-10-16T14:48:00;9.10;;;7.63;;
8285;SDS011;4181;43.416;24.598;2022-10-16T14:50:29;8.90;;;6.47;;
8285;SDS011;4181;43.416;24.598;2022-10-16T14:52:55;15.20;;;7.30;;
8285;SDS011;4181;43.416;24.598;2022-10-16T14:55:20;9.70;;;6.27;;
8285;SDS011;4181;43.416;24.598;2022-10-16T14:57:46;10.17;;;6.03;;
8285;SDS011;4181;43.416;24.598;2022-10-16T15:00:18;7.30;;;5.50;;
8285;SDS011;4181;43.416;24.598;2022-10-16T15:02:45;9.77;;;6.00;;
8285;SDS011;4181;43.416;24.598;2022-10-16T15:05:15;12.43;;;6.37;;
8285;SDS011;4181;43.416;24.598;2022-10-16T15:07:49;11.50;;;6.30;;
8285;SDS011;4181;43.416;24.598;2022-10-16T15:10:15;14.37;;;6.93;;
8285;SDS011;4181;43.416;24.598;2022-10-16T15:12:42;15.47;;;8.50;;
8285;SDS011;4181;43.416;24.598;2022-10-16T15:15:15;11.07;;;6.17;;
8285;SDS011;4181;43.416;24.598;2022-10-16T15:17:54;15.00;;;7.50;;
8285;SDS011;4181;43.416;24.598;2022-10-16T15:20:22;12.87;;;6.93;;
8285;SDS011;4181;43.416;24.598;2022-10-16T15:22:49;9.30;;;6.50;;
8285;SDS011;4181;43.416;24.598;2022-10-16T15:25:21;12.53;;;6.80;;
8285;SDS011;4181;43.416;24.598;2022-10-16T15:28:00;17.83;;;7.87;;
8285;SDS011;4181;43.416;24.598;2022-10-16T15:30:27;13.97;;;7.77;;
8285;SDS011;4181;43.416;24.598;2022-10-16T15:32:55;11.70;;;7.13;;
8285;SDS011;4181;43.416;24.598;2022-10-16T15:35:20;10.73;;;7.37;;
8285;SDS011;4181;43.416;24.598;2022-10-16T15:37:46;11.37;;;8.73;;
8285;SDS011;4181;43.416;24.598;2022-10-16T15:40:13;15.40;;;10.17;;
8285;SDS011;4181;43.416;24.598;2022-10-16T15:42:39;20.10;;;12.33;;
8285;SDS011;4181;43.416;24.598;2022-10-16T15:45:05;16.67;;;10.73;;
8285;SDS011;4181;43.416;24.598;2022-10-16T15:47:31;16.37;;;10.87;;
8285;SDS011;4181;43.416;24.598;2022-10-16T15:49:57;21.10;;;10.50;;
8285;SDS011;4181;43.416;24.598;2022-10-16T15:52:23;10.67;;;8.83;;
8285;SDS011;4181;43.416;24.598;2022-10-16T15:54:48;16.13;;;9.43;;
8285;SDS011;4181;43.416;24.598;2022-10-16T15:57:14;17.57;;;11.30;;
8285;SDS011;4181;43.416;24.598;2022-10-16T15:59:39;13.73;;;9.13;;
8285;SDS011;4181;43.416;24.598;2022-10-16T16:02:04;17.47;;;10.13;;
8285;SDS011;4181;43.416;24.598;2022-10-16T16:04:30;132.70;;;80.57;;
8285;SDS011;4181;43.416;24.598;2022-10-16T16:06:56;19.27;;;9.73;;
8285;SDS011;4181;43.416;24.598;2022-10-16T16:09:21;16.33;;;7.53;;
8285;SDS011;4181;43.416;24.598;2022-10-16T16:11:47;14.60;;;8.27;;
8285;SDS011;4181;43.416;24.598;2022-10-16T16:14:15;22.73;;;10.63;;
8285;SDS011;4181;43.416;24.598;2022-10-16T16:16:41;30.87;;;15.53;;
8285;SDS011;4181;43.416;24.598;2022-10-16T16:19:07;41.20;;;16.03;;
8285;SDS011;4181;43.416;24.598;2022-10-16T16:21:34;13.97;;;10.27;;
8285;SDS011;4181;43.416;24.598;2022-10-16T16:24:01;17.93;;;13.10;;
8285;SDS011;4181;43.416;24.598;2022-10-16T16:26:32;15.60;;;10.47;;
8285;SDS011;4181;43.416;24.598;2022-10-16T16:29:01;17.43;;;10.20;;
8285;SDS011;4181;43.416;24.598;2022-10-16T16:31:28;15.07;;;9.37;;
8285;SDS011;4181;43.416;24.598;2022-10-16T16:33:55;12.40;;;8.07;;
8285;SDS011;4181;43.416;24.598;2022-10-16T16:36:21;14.00;;;7.27;;
8285;SDS011;4181;43.416;24.598;2022-10-16T16:38:48;10.63;;;6.33;;
8285;SDS011;4181;43.416;24.598;2022-10-16T16:41:14;10.63;;;6.47;;
8285;SDS011;4181;43.416;24.598;2022-10-16T16:43:43;28.87;;;10.40;;
8285;SDS011;4181;43.416;24.598;2022-10-16T16:46:09;14.57;;;7.23;;
8285;SDS011;4181;43.416;24.598;2022-10-16T16:48:36;76.00;;;22.87;;
8285;SDS011;4181;43.416;24.598;2022-10-16T16:51:03;18.47;;;8.63;;
8285;SDS011;4181;43.416;24.598;2022-10-16T16:53:30;15.13;;;8.00;;
8285;SDS011;4181;43.416;24.598;2022-10-16T16:55:55;12.43;;;7.53;;
8285;SDS011;4181;43.416;24.598;2022-10-16T16:58:25;15.33;;;8.17;;
8285;SDS011;4181;43.416;24.598;2022-10-16T17:00:50;13.47;;;8.20;;
8285;SDS011;4181;43.416;24.598;2022-10-16T17:03:16;10.47;;;7.57;;
8285;SDS011;4181;43.416;24.598;2022-10-16T17:05:41;10.40;;;7.17;;
8285;SDS011;4181;43.416;24.598;2022-10-16T17:08:07;14.17;;;7.87;;
8285;SDS011;4181;43.416;24.598;2022-10-16T17:10:33;12.40;;;8.23;;
8285;SDS011;4181;43.416;24.598;2022-10-16T17:12:58;9.50;;;7.00;;
8285;SDS011;4181;43.416;24.598;2022-10-16T17:15:24;14.87;;;7.70;;